sensor_id;sensor_type;location;lat;lon;timestamp;P1;durP1;ratioP1;P2;durP2;ratioP2
66923;SDS011;53835;47.984;7.844;2022-08-02T00:02:05;2.60;;;2.40;;
66923;SDS011;53835;47.984;7.844;2022-08-02T00:04:33;2.10;;;2.00;;
66923;SDS011;53835;47.984;7.844;2022-08-02T00:07:00;2.40;;;2.10;;
66923;SDS011;53835;47.984;7.844;2022-08-02T00:09:27;2.40;;;2.20;;
66923;SDS011;53835;47.984;7.844;2022-08-02T00:11:54;2.80;;;2.10;;
66923;SDS011;53835;47.984;7.844;2022-08-02T00:14:22;3.70;;;2.30;;
66923;SDS011;53835;47.984;7.844;2022-08-02T00:16:49;2.33;;;2.13;;
66923;SDS011;53835;47.984;7.844;2022-08-02T00:19:17;1.98;;;1.77;;
66923;SDS011;53835;47.984;7.844;2022-08-02T00:21:44;2.10;;;1.90;;
66923;SDS011;53835;47.984;7.844;2022-08-02T00:24:11;4.70;;;2.30;;
66923;SDS011;53835;47.984;7.844;2022-08-02T00:26:39;2.90;;;2.20;;
66923;SDS011;53835;47.984;7.844;2022-08-02T00:29:06;2.70;;;2.13;;
66923;SDS011;53835;47.984;7.844;2022-08-02T00:31:33;3.73;;;2.20;;
66923;SDS011;53835;47.984;7.844;2022-08-02T00:34:00;2.60;;;2.40;;
66923;SDS011;53835;47.984;7.844;2022-08-02T00:36:28;2.40;;;2.20;;
66923;SDS011;53835;47.984;7.844;2022-08-02T00:38:55;2.83;;;2.57;;
66923;SDS011;53835;47.984;7.844;2022-08-02T00:41:22;3.30;;;2.13;;
66923;SDS011;53835;47.984;7.844;2022-08-02T00:43:50;2.40;;;2.20;;
66923;SDS011;53835;47.984;7.844;2022-08-02T00:46:18;2.30;;;2.10;;
66923;SDS011;53835;47.984;7.844;2022-08-02T00:48:46;2.90;;;2.20;;
66923;SDS011;53835;47.984;7.844;2022-08-02T00:51:15;2.87;;;2.50;;
66923;SDS011;53835;47.984;7.844;2022-08-02T00:53:42;2.87;;;2.23;;
66923;SDS011;53835;47.984;7.844;2022-08-02T00:56:09;2.67;;;2.47;;
66923;SDS011;53835;47.984;7.844;2022-08-02T00:58:37;2.13;;;2.03;;
66923;SDS011;53835;47.984;7.844;2022-08-02T01:01:04;3.00;;;2.30;;
66923;SDS011;53835;47.984;7.844;2022-08-02T01:03:31;3.20;;;2.47;;
66923;SDS011;53835;47.984;7.844;2022-08-02T01:06:00;3.20;;;2.33;;
66923;SDS011;53835;47.984;7.844;2022-08-02T01:08:27;2.50;;;2.30;;
66923;SDS011;53835;47.984;7.844;2022-08-02T01:10:54;2.90;;;2.40;;
66923;SDS011;53835;47.984;7.844;2022-08-02T01:13:22;4.10;;;2.30;;
66923;SDS011;53835;47.984;7.844;2022-08-02T01:15:51;2.80;;;2.50;;
66923;SDS011;53835;47.984;7.844;2022-08-02T01:18:21;2.40;;;2.20;;
66923;SDS011;53835;47.984;7.844;2022-08-02T01:23:37;3.10;;;2.60;;
66923;SDS011;53835;47.984;7.844;2022-08-02T01:26:51;4.27;;;2.43;;
66923;SDS011;53835;47.984;7.844;2022-08-02T01:31:46;2.97;;;2.60;;
66923;SDS011;53835;47.984;7.844;2022-08-02T01:33:55;5.23;;;2.57;;
66923;SDS011;53835;47.984;7.844;2022-08-02T01:36:19;3.70;;;2.63;;
66923;SDS011;53835;47.984;7.844;2022-08-02T01:38:49;3.90;;;2.70;;
66923;SDS011;53835;47.984;7.844;2022-08-02T01:41:20;3.73;;;2.40;;
66923;SDS011;53835;47.984;7.844;2022-08-02T01:43:48;4.47;;;2.47;;
66923;SDS011;53835;47.984;7.844;2022-08-02T01:46:17;4.63;;;2.73;;
66923;SDS011;53835;47.984;7.844;2022-08-02T01:48:45;3.50;;;2.30;;
66923;SDS011;53835;47.984;7.844;2022-08-02T01:51:13;6.50;;;2.50;;
66923;SDS011;53835;47.984;7.844;2022-08-02T01:53:42;3.07;;;2.50;;
66923;SDS011;53835;47.984;7.844;2022-08-02T01:56:11;2.30;;;2.10;;
66923;SDS011;53835;47.984;7.844;2022-08-02T01:58:38;2.43;;;2.13;;
66923;SDS011;53835;47.984;7.844;2022-08-02T02:01:07;2.77;;;2.57;;
66923;SDS011;53835;47.984;7.844;2022-08-02T02:03:35;2.27;;;2.07;;
66923;SDS011;53835;47.984;7.844;2022-08-02T02:06:04;3.90;;;2.40;;
66923;SDS011;53835;47.984;7.844;2022-08-02T02:08:35;2.40;;;2.20;;
66923;SDS011;53835;47.984;7.844;2022-08-02T02:11:02;3.20;;;2.40;;
66923;SDS011;53835;47.984;7.844;2022-08-02T02:13:29;2.50;;;2.30;;
66923;SDS011;53835;47.984;7.844;2022-08-02T02:15:57;7.30;;;2.27;;
66923;SDS011;53835;47.984;7.844;2022-08-02T02:18:26;2.97;;;2.10;;
66923;SDS011;53835;47.984;7.844;2022-08-02T02:20:54;2.63;;;2.43;;
66923;SDS011;53835;47.984;7.844;2022-08-02T02:23:22;2.47;;;2.27;;
66923;SDS011;53835;47.984;7.844;2022-08-02T02:25:50;5.70;;;2.20;;
66923;SDS011;53835;47.984;7.844;2022-08-02T02:28:23;2.43;;;2.20;;
66923;SDS011;53835;47.984;7.844;2022-08-02T02:30:54;2.40;;;2.20;;
66923;SDS011;53835;47.984;7.844;2022-08-02T02:33:21;2.83;;;2.10;;
66923;SDS011;53835;47.984;7.844;2022-08-02T02:35:50;2.40;;;2.00;;
66923;SDS011;53835;47.984;7.844;2022-08-02T02:38:18;4.50;;;2.40;;
66923;SDS011;53835;47.984;7.844;2022-08-02T02:40:46;3.23;;;2.30;;
66923;SDS011;53835;47.984;7.844;2022-08-02T02:43:14;2.60;;;2.30;;
66923;SDS011;53835;47.984;7.844;2022-08-02T02:45:42;3.83;;;2.20;;
66923;SDS011;53835;47.984;7.844;2022-08-02T02:48:09;6.07;;;2.30;;
66923;SDS011;53835;47.984;7.844;2022-08-02T02:50:37;2.37;;;2.10;;
66923;SDS011;53835;47.984;7.844;2022-08-02T02:53:05;2.80;;;2.13;;
66923;SDS011;53835;47.984;7.844;2022-08-02T02:55:32;2.80;;;2.30;;
66923;SDS011;53835;47.984;7.844;2022-08-02T02:57:59;3.77;;;2.33;;
66923;SDS011;53835;47.984;7.844;2022-08-02T03:00:27;4.03;;;2.50;;
66923;SDS011;53835;47.984;7.844;2022-08-02T03:03:13;2.93;;;2.47;;
66923;SDS011;53835;47.984;7.844;2022-08-02T03:05:41;2.70;;;2.20;;
66923;SDS011;53835;47.984;7.844;2022-08-02T03:08:08;3.20;;;2.30;;
66923;SDS011;53835;47.984;7.844;2022-08-02T03:10:35;3.73;;;2.30;;
66923;SDS011;53835;47.984;7.844;2022-08-02T03:13:03;3.57;;;2.30;;
66923;SDS011;53835;47.984;7.844;2022-08-02T03:15:31;2.70;;;2.50;;
66923;SDS011;53835;47.984;7.844;2022-08-02T03:17:58;3.17;;;2.30;;
66923;SDS011;53835;47.984;7.844;2022-08-02T03:20:25;3.90;;;2.30;;
66923;SDS011;53835;47.984;7.844;2022-08-02T03:22:52;3.07;;;2.40;;
66923;SDS011;53835;47.984;7.844;2022-08-02T03:25:20;4.20;;;2.83;;
66923;SDS011;53835;47.984;7.844;2022-08-02T03:27:47;4.20;;;2.40;;
66923;SDS011;53835;47.984;7.844;2022-08-02T03:30:14;3.20;;;2.30;;
66923;SDS011;53835;47.984;7.844;2022-08-02T03:32:46;3.40;;;2.37;;
66923;SDS011;53835;47.984;7.844;2022-08-02T03:35:16;3.93;;;2.70;;
66923;SDS011;53835;47.984;7.844;2022-08-02T03:37:44;3.20;;;2.40;;
66923;SDS011;53835;47.984;7.844;2022-08-02T03:40:11;2.60;;;2.40;;
66923;SDS011;53835;47.984;7.844;2022-08-02T03:42:39;4.53;;;2.40;;
66923;SDS011;53835;47.984;7.844;2022-08-02T03:45:06;6.40;;;2.80;;
66923;SDS011;53835;47.984;7.844;2022-08-02T03:47:36;2.80;;;2.40;;
66923;SDS011;53835;47.984;7.844;2022-08-02T03:50:05;3.27;;;2.50;;
66923;SDS011;53835;47.984;7.844;2022-08-02T03:52:32;5.33;;;2.53;;
66923;SDS011;53835;47.984;7.844;2022-08-02T03:54:59;4.37;;;2.30;;
66923;SDS011;53835;47.984;7.844;2022-08-02T03:57:27;8.53;;;2.57;;
66923;SDS011;53835;47.984;7.844;2022-08-02T03:59:54;3.57;;;2.67;;
66923;SDS011;53835;47.984;7.844;2022-08-02T04:02:21;3.73;;;2.40;;
66923;SDS011;53835;47.984;7.844;2022-08-02T04:04:49;3.33;;;2.43;;
66923;SDS011;53835;47.984;7.844;2022-08-02T04:07:16;5.00;;;2.40;;
66923;SDS011;53835;47.984;7.844;2022-08-02T04:09:43;4.57;;;2.60;;
66923;SDS011;53835;47.984;7.844;2022-08-02T04:12:11;4.10;;;2.27;;
66923;SDS011;53835;47.984;7.844;2022-08-02T04:14:38;3.77;;;2.30;;
66923;SDS011;53835;47.984;7.844;2022-08-02T04:17:06;4.40;;;2.43;;
66923;SDS011;53835;47.984;7.844;2022-08-02T04:19:44;2.67;;;2.47;;
66923;SDS011;53835;47.984;7.844;2022-08-02T04:22:18;3.93;;;2.60;;
66923;SDS011;53835;47.984;7.844;2022-08-02T04:24:49;4.10;;;2.63;;
66923;SDS011;53835;47.984;7.844;2022-08-02T04:27:10;3.20;;;2.60;;
66923;SDS011;53835;47.984;7.844;2022-08-02T04:29:38;3.93;;;2.70;;
66923;SDS011;53835;47.984;7.844;2022-08-02T04:32:06;4.57;;;2.50;;
66923;SDS011;53835;47.984;7.844;2022-08-02T04:34:34;3.00;;;2.33;;
66923;SDS011;53835;47.984;7.844;2022-08-02T04:37:01;2.50;;;2.27;;
66923;SDS011;53835;47.984;7.844;2022-08-02T04:39:29;3.00;;;2.70;;
66923;SDS011;53835;47.984;7.844;2022-08-02T04:41:56;2.37;;;2.20;;
66923;SDS011;53835;47.984;7.844;2022-08-02T04:44:23;4.53;;;2.80;;
66923;SDS011;53835;47.984;7.844;2022-08-02T04:46:50;2.80;;;2.60;;
66923;SDS011;53835;47.984;7.844;2022-08-02T04:49:19;3.90;;;2.40;;
66923;SDS011;53835;47.984;7.844;2022-08-02T04:51:47;2.30;;;2.10;;
66923;SDS011;53835;47.984;7.844;2022-08-02T04:54:14;2.60;;;2.40;;
66923;SDS011;53835;47.984;7.844;2022-08-02T04:56:41;3.10;;;2.20;;
66923;SDS011;53835;47.984;7.844;2022-08-02T04:59:08;4.27;;;2.30;;
66923;SDS011;53835;47.984;7.844;2022-08-02T05:01:37;2.90;;;2.20;;
66923;SDS011;53835;47.984;7.844;2022-08-02T05:04:06;3.57;;;2.47;;
66923;SDS011;53835;47.984;7.844;2022-08-02T05:06:34;2.87;;;2.40;;
66923;SDS011;53835;47.984;7.844;2022-08-02T05:09:01;4.27;;;2.60;;
66923;SDS011;53835;47.984;7.844;2022-08-02T05:11:28;4.37;;;2.27;;
66923;SDS011;53835;47.984;7.844;2022-08-02T05:13:55;4.27;;;2.80;;
66923;SDS011;53835;47.984;7.844;2022-08-02T05:16:23;5.43;;;2.50;;
66923;SDS011;53835;47.984;7.844;2022-08-02T05:18:51;2.80;;;2.60;;
66923;SDS011;53835;47.984;7.844;2022-08-02T05:21:18;2.97;;;2.40;;
66923;SDS011;53835;47.984;7.844;2022-08-02T05:23:46;3.03;;;2.50;;
66923;SDS011;53835;47.984;7.844;2022-08-02T05:26:13;4.27;;;2.53;;
66923;SDS011;53835;47.984;7.844;2022-08-02T05:28:40;3.20;;;2.90;;
66923;SDS011;53835;47.984;7.844;2022-08-02T05:31:07;3.97;;;2.60;;
66923;SDS011;53835;47.984;7.844;2022-08-02T05:33:35;4.00;;;2.90;;
66923;SDS011;53835;47.984;7.844;2022-08-02T05:36:02;6.60;;;2.70;;
66923;SDS011;53835;47.984;7.844;2022-08-02T05:38:29;2.97;;;2.67;;
66923;SDS011;53835;47.984;7.844;2022-08-02T05:40:57;3.57;;;2.97;;
66923;SDS011;53835;47.984;7.844;2022-08-02T05:43:24;3.90;;;2.80;;
66923;SDS011;53835;47.984;7.844;2022-08-02T05:45:52;4.87;;;2.73;;
66923;SDS011;53835;47.984;7.844;2022-08-02T05:48:19;3.40;;;3.00;;
66923;SDS011;53835;47.984;7.844;2022-08-02T05:50:48;5.43;;;3.10;;
66923;SDS011;53835;47.984;7.844;2022-08-02T05:56:04;4.57;;;2.33;;
66923;SDS011;53835;47.984;7.844;2022-08-02T05:58:34;4.67;;;2.80;;
66923;SDS011;53835;47.984;7.844;2022-08-02T06:00:59;3.80;;;2.80;;
66923;SDS011;53835;47.984;7.844;2022-08-02T06:03:31;3.70;;;2.80;;
66923;SDS011;53835;47.984;7.844;2022-08-02T06:06:11;3.13;;;2.83;;
66923;SDS011;53835;47.984;7.844;2022-08-02T06:08:43;3.67;;;3.00;;
66923;SDS011;53835;47.984;7.844;2022-08-02T06:11:12;3.17;;;2.67;;
66923;SDS011;53835;47.984;7.844;2022-08-02T06:13:40;5.00;;;2.80;;
66923;SDS011;53835;47.984;7.844;2022-08-02T06:16:08;3.40;;;2.60;;
66923;SDS011;53835;47.984;7.844;2022-08-02T06:18:36;3.00;;;2.67;;
66923;SDS011;53835;47.984;7.844;2022-08-02T06:21:03;3.17;;;2.60;;
66923;SDS011;53835;47.984;7.844;2022-08-02T06:23:31;3.30;;;3.00;;
66923;SDS011;53835;47.984;7.844;2022-08-02T06:25:59;2.60;;;2.40;;
66923;SDS011;53835;47.984;7.844;2022-08-02T06:28:26;4.07;;;2.77;;
66923;SDS011;53835;47.984;7.844;2022-08-02T06:30:53;3.17;;;2.77;;
66923;SDS011;53835;47.984;7.844;2022-08-02T06:33:22;3.00;;;2.80;;
66923;SDS011;53835;47.984;7.844;2022-08-02T06:38:23;2.92;;;2.67;;
66923;SDS011;53835;47.984;7.844;2022-08-02T06:46:06;3.23;;;2.60;;
66923;SDS011;53835;47.984;7.844;2022-08-02T06:48:33;4.57;;;3.30;;
66923;SDS011;53835;47.984;7.844;2022-08-02T06:51:02;3.57;;;3.00;;
66923;SDS011;53835;47.984;7.844;2022-08-02T06:53:29;3.03;;;2.73;;
66923;SDS011;53835;47.984;7.844;2022-08-02T06:55:57;2.90;;;2.60;;
66923;SDS011;53835;47.984;7.844;2022-08-02T06:58:24;4.63;;;2.87;;
66923;SDS011;53835;47.984;7.844;2022-08-02T07:00:51;7.10;;;3.20;;
66923;SDS011;53835;47.984;7.844;2022-08-02T07:03:18;4.20;;;3.12;;
66923;SDS011;53835;47.984;7.844;2022-08-02T07:05:46;3.95;;;2.70;;
66923;SDS011;53835;47.984;7.844;2022-08-02T07:08:16;3.17;;;2.90;;
66923;SDS011;53835;47.984;7.844;2022-08-02T07:10:44;3.77;;;2.65;;
66923;SDS011;53835;47.984;7.844;2022-08-02T07:13:11;3.08;;;2.77;;
66923;SDS011;53835;47.984;7.844;2022-08-02T07:15:38;3.12;;;2.62;;
66923;SDS011;53835;47.984;7.844;2022-08-02T07:18:06;2.90;;;2.60;;
66923;SDS011;53835;47.984;7.844;2022-08-02T07:20:33;4.70;;;2.72;;
66923;SDS011;53835;47.984;7.844;2022-08-02T07:23:00;3.00;;;2.47;;
66923;SDS011;53835;47.984;7.844;2022-08-02T07:25:27;2.62;;;2.33;;
66923;SDS011;53835;47.984;7.844;2022-08-02T07:27:55;2.95;;;2.65;;
66923;SDS011;53835;47.984;7.844;2022-08-02T07:30:22;4.20;;;2.77;;
66923;SDS011;53835;47.984;7.844;2022-08-02T07:32:49;6.03;;;2.77;;
66923;SDS011;53835;47.984;7.844;2022-08-02T07:35:16;4.78;;;2.75;;
66923;SDS011;53835;47.984;7.844;2022-08-02T07:37:44;3.95;;;3.37;;
66923;SDS011;53835;47.984;7.844;2022-08-02T07:40:12;6.00;;;3.20;;
66923;SDS011;53835;47.984;7.844;2022-08-02T07:42:39;6.10;;;3.08;;
66923;SDS011;53835;47.984;7.844;2022-08-02T07:45:07;6.65;;;3.30;;
66923;SDS011;53835;47.984;7.844;2022-08-02T07:47:38;6.90;;;3.30;;
66923;SDS011;53835;47.984;7.844;2022-08-02T07:50:05;8.50;;;3.60;;
66923;SDS011;53835;47.984;7.844;2022-08-02T07:52:33;5.33;;;3.33;;
66923;SDS011;53835;47.984;7.844;2022-08-02T07:55:00;5.72;;;2.83;;
66923;SDS011;53835;47.984;7.844;2022-08-02T07:57:28;4.95;;;2.90;;
66923;SDS011;53835;47.984;7.844;2022-08-02T07:59:56;7.15;;;4.03;;
66923;SDS011;53835;47.984;7.844;2022-08-02T08:02:23;5.58;;;3.50;;
66923;SDS011;53835;47.984;7.844;2022-08-02T08:04:51;4.92;;;3.20;;
66923;SDS011;53835;47.984;7.844;2022-08-02T08:07:18;5.87;;;2.95;;
66923;SDS011;53835;47.984;7.844;2022-08-02T08:09:45;3.22;;;2.85;;
66923;SDS011;53835;47.984;7.844;2022-08-02T08:12:14;2.95;;;2.55;;
66923;SDS011;53835;47.984;7.844;2022-08-02T08:14:42;4.37;;;2.83;;
66923;SDS011;53835;47.984;7.844;2022-08-02T08:17:10;5.33;;;2.87;;
66923;SDS011;53835;47.984;7.844;2022-08-02T08:19:37;3.05;;;2.67;;
66923;SDS011;53835;47.984;7.844;2022-08-02T08:22:04;6.12;;;2.55;;
66923;SDS011;53835;47.984;7.844;2022-08-02T08:24:31;3.77;;;2.60;;
66923;SDS011;53835;47.984;7.844;2022-08-02T08:26:59;2.90;;;2.60;;
66923;SDS011;53835;47.984;7.844;2022-08-02T08:29:26;3.15;;;2.40;;
66923;SDS011;53835;47.984;7.844;2022-08-02T08:31:53;3.45;;;2.45;;
66923;SDS011;53835;47.984;7.844;2022-08-02T08:34:20;3.55;;;2.37;;
66923;SDS011;53835;47.984;7.844;2022-08-02T08:36:49;4.50;;;2.50;;
66923;SDS011;53835;47.984;7.844;2022-08-02T08:39:16;2.70;;;2.50;;
66923;SDS011;53835;47.984;7.844;2022-08-02T08:41:43;4.42;;;2.40;;
66923;SDS011;53835;47.984;7.844;2022-08-02T08:44:12;3.55;;;2.42;;
66923;SDS011;53835;47.984;7.844;2022-08-02T08:46:39;3.60;;;2.75;;
66923;SDS011;53835;47.984;7.844;2022-08-02T08:49:11;5.17;;;2.40;;
66923;SDS011;53835;47.984;7.844;2022-08-02T08:51:40;4.28;;;2.20;;
66923;SDS011;53835;47.984;7.844;2022-08-02T08:54:06;3.50;;;2.20;;
66923;SDS011;53835;47.984;7.844;2022-08-02T08:56:35;2.85;;;2.05;;
66923;SDS011;53835;47.984;7.844;2022-08-02T08:59:03;2.98;;;2.00;;
66923;SDS011;53835;47.984;7.844;2022-08-02T09:01:31;3.42;;;2.12;;
66923;SDS011;53835;47.984;7.844;2022-08-02T09:04:00;3.05;;;2.00;;
66923;SDS011;53835;47.984;7.844;2022-08-02T09:06:27;3.00;;;2.10;;
66923;SDS011;53835;47.984;7.844;2022-08-02T09:08:55;3.25;;;2.12;;
66923;SDS011;53835;47.984;7.844;2022-08-02T09:11:22;3.08;;;1.90;;
66923;SDS011;53835;47.984;7.844;2022-08-02T09:14:01;3.47;;;2.33;;
66923;SDS011;53835;47.984;7.844;2022-08-02T09:16:35;3.83;;;2.30;;
66923;SDS011;53835;47.984;7.844;2022-08-02T09:19:24;3.00;;;2.20;;
66923;SDS011;53835;47.984;7.844;2022-08-02T09:21:35;2.87;;;2.22;;
66923;SDS011;53835;47.984;7.844;2022-08-02T09:24:12;2.50;;;2.30;;
66923;SDS011;53835;47.984;7.844;2022-08-02T09:26:32;4.30;;;2.10;;
66923;SDS011;53835;47.984;7.844;2022-08-02T09:29:00;5.75;;;2.35;;
66923;SDS011;53835;47.984;7.844;2022-08-02T09:31:27;4.45;;;2.27;;
66923;SDS011;53835;47.984;7.844;2022-08-02T09:34:00;5.53;;;2.35;;
66923;SDS011;53835;47.984;7.844;2022-08-02T09:36:24;3.95;;;1.90;;
66923;SDS011;53835;47.984;7.844;2022-08-02T09:38:58;4.85;;;2.00;;
66923;SDS011;53835;47.984;7.844;2022-08-02T09:41:28;7.75;;;2.20;;
66923;SDS011;53835;47.984;7.844;2022-08-02T09:43:56;3.52;;;2.00;;
66923;SDS011;53835;47.984;7.844;2022-08-02T09:46:25;5.97;;;2.67;;
66923;SDS011;53835;47.984;7.844;2022-08-02T09:48:53;2.25;;;2.05;;
66923;SDS011;53835;47.984;7.844;2022-08-02T09:51:22;2.40;;;2.20;;
66923;SDS011;53835;47.984;7.844;2022-08-02T09:53:51;4.22;;;2.10;;
66923;SDS011;53835;47.984;7.844;2022-08-02T09:56:19;2.47;;;2.10;;
66923;SDS011;53835;47.984;7.844;2022-08-02T09:58:48;6.70;;;2.30;;
66923;SDS011;53835;47.984;7.844;2022-08-02T10:01:18;3.52;;;1.80;;
66923;SDS011;53835;47.984;7.844;2022-08-02T10:03:53;3.83;;;2.10;;
66923;SDS011;53835;47.984;7.844;2022-08-02T10:06:21;3.55;;;2.50;;
66923;SDS011;53835;47.984;7.844;2022-08-02T10:08:48;4.10;;;2.10;;
66923;SDS011;53835;47.984;7.844;2022-08-02T10:11:16;3.30;;;2.10;;
66923;SDS011;53835;47.984;7.844;2022-08-02T10:13:43;6.30;;;2.50;;
66923;SDS011;53835;47.984;7.844;2022-08-02T10:16:11;2.65;;;2.10;;
66923;SDS011;53835;47.984;7.844;2022-08-02T10:18:39;3.50;;;2.17;;
66923;SDS011;53835;47.984;7.844;2022-08-02T10:21:10;3.55;;;1.87;;
66923;SDS011;53835;47.984;7.844;2022-08-02T10:23:35;4.42;;;1.98;;
66923;SDS011;53835;47.984;7.844;2022-08-02T10:26:04;2.37;;;1.90;;
66923;SDS011;53835;47.984;7.844;2022-08-02T10:28:33;4.97;;;2.10;;
66923;SDS011;53835;47.984;7.844;2022-08-02T10:31:01;2.35;;;2.05;;
66923;SDS011;53835;47.984;7.844;2022-08-02T10:33:29;2.85;;;2.33;;
66923;SDS011;53835;47.984;7.844;2022-08-02T10:35:58;2.55;;;2.00;;
66923;SDS011;53835;47.984;7.844;2022-08-02T10:38:25;3.25;;;1.90;;
66923;SDS011;53835;47.984;7.844;2022-08-02T10:40:53;2.85;;;2.10;;
66923;SDS011;53835;47.984;7.844;2022-08-02T10:54:18;4.30;;;2.35;;
66923;SDS011;53835;47.984;7.844;2022-08-02T10:56:48;3.60;;;2.05;;
66923;SDS011;53835;47.984;7.844;2022-08-02T11:02:02;3.12;;;2.20;;
66923;SDS011;53835;47.984;7.844;2022-08-02T11:04:59;3.17;;;2.10;;
66923;SDS011;53835;47.984;7.844;2022-08-02T11:07:14;2.50;;;2.27;;
66923;SDS011;53835;47.984;7.844;2022-08-02T11:09:46;2.37;;;2.15;;
66923;SDS011;53835;47.984;7.844;2022-08-02T11:12:19;3.77;;;2.22;;
66923;SDS011;53835;47.984;7.844;2022-08-02T11:14:44;2.80;;;2.10;;
66923;SDS011;53835;47.984;7.844;2022-08-02T11:17:15;2.87;;;1.90;;
66923;SDS011;53835;47.984;7.844;2022-08-02T11:22:28;5.58;;;2.30;;
66923;SDS011;53835;47.984;7.844;2022-08-02T11:24:55;3.27;;;2.10;;
66923;SDS011;53835;47.984;7.844;2022-08-02T11:27:22;3.55;;;1.98;;
66923;SDS011;53835;47.984;7.844;2022-08-02T11:29:49;2.20;;;1.98;;
66923;SDS011;53835;47.984;7.844;2022-08-02T11:32:18;2.30;;;2.10;;
66923;SDS011;53835;47.984;7.844;2022-08-02T11:34:47;4.67;;;2.30;;
66923;SDS011;53835;47.984;7.844;2022-08-02T11:37:30;1.95;;;1.80;;
66923;SDS011;53835;47.984;7.844;2022-08-02T11:39:58;2.25;;;2.00;;
66923;SDS011;53835;47.984;7.844;2022-08-02T11:42:35;3.22;;;2.08;;
66923;SDS011;53835;47.984;7.844;2022-08-02T11:44:54;3.17;;;2.08;;
66923;SDS011;53835;47.984;7.844;2022-08-02T11:47:22;2.55;;;2.08;;
66923;SDS011;53835;47.984;7.844;2022-08-02T11:49:49;2.20;;;2.00;;
66923;SDS011;53835;47.984;7.844;2022-08-02T11:52:16;2.35;;;2.10;;
66923;SDS011;53835;47.984;7.844;2022-08-02T11:54:44;2.27;;;1.87;;
66923;SDS011;53835;47.984;7.844;2022-08-02T11:59:40;3.42;;;1.80;;
66923;SDS011;53835;47.984;7.844;2022-08-02T12:02:08;2.10;;;1.90;;
66923;SDS011;53835;47.984;7.844;2022-08-02T12:04:36;2.25;;;1.98;;
66923;SDS011;53835;47.984;7.844;2022-08-02T12:07:04;2.37;;;1.90;;
66923;SDS011;53835;47.984;7.844;2022-08-02T12:09:32;2.10;;;1.77;;
66923;SDS011;53835;47.984;7.844;2022-08-02T12:12:00;4.58;;;1.80;;
66923;SDS011;53835;47.984;7.844;2022-08-02T12:14:29;4.33;;;1.80;;
66923;SDS011;53835;47.984;7.844;2022-08-02T12:16:57;2.17;;;1.80;;
66923;SDS011;53835;47.984;7.844;2022-08-02T12:19:43;3.33;;;1.60;;
66923;SDS011;53835;47.984;7.844;2022-08-02T12:22:15;1.70;;;1.60;;
66923;SDS011;53835;47.984;7.844;2022-08-02T12:24:49;2.50;;;1.75;;
66923;SDS011;53835;47.984;7.844;2022-08-02T12:27:31;2.22;;;1.60;;
66923;SDS011;53835;47.984;7.844;2022-08-02T12:29:59;3.27;;;1.98;;
66923;SDS011;53835;47.984;7.844;2022-08-02T12:32:27;2.75;;;1.57;;
66923;SDS011;53835;47.984;7.844;2022-08-02T12:37:36;1.77;;;1.40;;
66923;SDS011;53835;47.984;7.844;2022-08-02T12:42:55;1.40;;;1.30;;
66923;SDS011;53835;47.984;7.844;2022-08-02T12:45:18;1.57;;;1.40;;
66923;SDS011;53835;47.984;7.844;2022-08-02T12:47:46;2.62;;;1.40;;
66923;SDS011;53835;47.984;7.844;2022-08-02T12:52:43;4.22;;;1.45;;
66923;SDS011;53835;47.984;7.844;2022-08-02T12:55:14;2.05;;;1.40;;
66923;SDS011;53835;47.984;7.844;2022-08-02T12:57:54;2.58;;;1.47;;
66923;SDS011;53835;47.984;7.844;2022-08-02T13:00:32;1.62;;;1.10;;
66923;SDS011;53835;47.984;7.844;2022-08-02T13:02:59;1.30;;;1.20;;
66923;SDS011;53835;47.984;7.844;2022-08-02T13:05:27;1.98;;;1.40;;
66923;SDS011;53835;47.984;7.844;2022-08-02T13:07:55;1.95;;;1.67;;
66923;SDS011;53835;47.984;7.844;2022-08-02T13:10:22;2.65;;;1.22;;
66923;SDS011;53835;47.984;7.844;2022-08-02T13:12:50;1.45;;;1.20;;
66923;SDS011;53835;47.984;7.844;2022-08-02T13:15:18;1.37;;;1.07;;
66923;SDS011;53835;47.984;7.844;2022-08-02T13:17:45;1.82;;;1.20;;
66923;SDS011;53835;47.984;7.844;2022-08-02T13:20:13;2.67;;;1.55;;
66923;SDS011;53835;47.984;7.844;2022-08-02T13:22:40;4.90;;;1.50;;
66923;SDS011;53835;47.984;7.844;2022-08-02T13:25:08;1.92;;;1.10;;
66923;SDS011;53835;47.984;7.844;2022-08-02T13:27:35;2.10;;;1.05;;
66923;SDS011;53835;47.984;7.844;2022-08-02T13:30:04;3.35;;;1.32;;
66923;SDS011;53835;47.984;7.844;2022-08-02T13:32:31;1.65;;;1.22;;
66923;SDS011;53835;47.984;7.844;2022-08-02T13:34:58;2.00;;;1.20;;
66923;SDS011;53835;47.984;7.844;2022-08-02T13:37:26;1.67;;;1.17;;
66923;SDS011;53835;47.984;7.844;2022-08-02T13:39:53;1.75;;;1.30;;
66923;SDS011;53835;47.984;7.844;2022-08-02T13:42:20;1.67;;;1.12;;
66923;SDS011;53835;47.984;7.844;2022-08-02T13:44:48;2.10;;;1.17;;
66923;SDS011;53835;47.984;7.844;2022-08-02T13:47:15;4.90;;;1.17;;
66923;SDS011;53835;47.984;7.844;2022-08-02T13:49:43;4.35;;;1.10;;
66923;SDS011;53835;47.984;7.844;2022-08-02T13:52:10;1.42;;;1.15;;
66923;SDS011;53835;47.984;7.844;2022-08-02T13:54:38;2.83;;;1.10;;
66923;SDS011;53835;47.984;7.844;2022-08-02T13:57:05;2.17;;;1.10;;
66923;SDS011;53835;47.984;7.844;2022-08-02T13:59:32;2.22;;;0.90;;
66923;SDS011;53835;47.984;7.844;2022-08-02T14:02:00;1.22;;;0.90;;
66923;SDS011;53835;47.984;7.844;2022-08-02T14:04:27;2.45;;;0.85;;
66923;SDS011;53835;47.984;7.844;2022-08-02T14:06:56;6.15;;;1.12;;
66923;SDS011;53835;47.984;7.844;2022-08-02T14:09:24;2.77;;;1.02;;
66923;SDS011;53835;47.984;7.844;2022-08-02T14:11:51;3.45;;;1.27;;
66923;SDS011;53835;47.984;7.844;2022-08-02T14:14:18;1.42;;;0.90;;
66923;SDS011;53835;47.984;7.844;2022-08-02T14:16:46;1.87;;;1.00;;
66923;SDS011;53835;47.984;7.844;2022-08-02T14:19:13;1.57;;;1.10;;
66923;SDS011;53835;47.984;7.844;2022-08-02T14:21:40;1.92;;;0.90;;
66923;SDS011;53835;47.984;7.844;2022-08-02T14:24:07;4.33;;;0.93;;
66923;SDS011;53835;47.984;7.844;2022-08-02T14:26:35;1.72;;;0.80;;
66923;SDS011;53835;47.984;7.844;2022-08-02T14:29:03;1.92;;;0.90;;
66923;SDS011;53835;47.984;7.844;2022-08-02T14:31:30;1.47;;;0.90;;
66923;SDS011;53835;47.984;7.844;2022-08-02T14:33:58;0.70;;;0.70;;
66923;SDS011;53835;47.984;7.844;2022-08-02T14:36:25;1.52;;;0.80;;
66923;SDS011;53835;47.984;7.844;2022-08-02T14:38:52;0.88;;;0.85;;
66923;SDS011;53835;47.984;7.844;2022-08-02T14:41:19;2.12;;;0.80;;
66923;SDS011;53835;47.984;7.844;2022-08-02T14:43:47;1.22;;;0.72;;
66923;SDS011;53835;47.984;7.844;2022-08-02T14:46:29;1.25;;;0.82;;
66923;SDS011;53835;47.984;7.844;2022-08-02T14:48:57;0.57;;;0.57;;
66923;SDS011;53835;47.984;7.844;2022-08-02T14:51:27;1.32;;;0.80;;
66923;SDS011;53835;47.984;7.844;2022-08-02T14:53:54;1.90;;;0.60;;
66923;SDS011;53835;47.984;7.844;2022-08-02T14:56:22;1.37;;;0.80;;
66923;SDS011;53835;47.984;7.844;2022-08-02T14:58:49;0.60;;;0.42;;
66923;SDS011;53835;47.984;7.844;2022-08-02T15:01:16;0.70;;;0.50;;
66923;SDS011;53835;47.984;7.844;2022-08-02T15:03:44;0.62;;;0.60;;
66923;SDS011;53835;47.984;7.844;2022-08-02T15:06:11;1.52;;;0.50;;
66923;SDS011;53835;47.984;7.844;2022-08-02T15:08:38;0.88;;;0.72;;
66923;SDS011;53835;47.984;7.844;2022-08-02T15:11:06;0.60;;;0.60;;
66923;SDS011;53835;47.984;7.844;2022-08-02T15:13:34;0.68;;;0.68;;
66923;SDS011;53835;47.984;7.844;2022-08-02T15:16:01;2.15;;;1.02;;
66923;SDS011;53835;47.984;7.844;2022-08-02T15:18:29;1.05;;;0.70;;
66923;SDS011;53835;47.984;7.844;2022-08-02T15:20:56;2.05;;;0.90;;
66923;SDS011;53835;47.984;7.844;2022-08-02T15:23:23;0.57;;;0.57;;
66923;SDS011;53835;47.984;7.844;2022-08-02T15:25:51;2.60;;;0.65;;
66923;SDS011;53835;47.984;7.844;2022-08-02T15:28:18;0.90;;;0.90;;
66923;SDS011;53835;47.984;7.844;2022-08-02T15:30:45;0.65;;;0.65;;
66923;SDS011;53835;47.984;7.844;2022-08-02T15:33:13;1.40;;;0.55;;
66923;SDS011;53835;47.984;7.844;2022-08-02T15:35:40;2.58;;;0.80;;
66923;SDS011;53835;47.984;7.844;2022-08-02T15:38:07;1.87;;;0.78;;